Bradford Regional Airport Bradford US
ICAO: KBFD
IATA: BFD
Category: Medium
Scheduled Services: Yes

Elevation: 2143 ft
TransAlt. 18000 ft.

Airport Communications:
ASOS:133.825
CLEVELAND CNTR:124.325
ALTOONA RDO:122.2
CTAF/UNICOM:123.075

KBFD Zoom In..

If Map Doesn't Load, Click Here

Runways:

(A) RW 05 length 4499 ft width 100 ft
---- / hdg 55

(B) RW 14 length 6306 ft width 150 ft
---- / hdg 145

(C) RW 23 length 4499 ft width 100 ft
---- / hdg 235

(D) RW 32 length 6306 ft width 150 ft
ILS 108.30 / hdg 325

Location; KBFD
Day. 21 / Time. 13.41 Zulu
* Altimeter: 30.09
* Temperature: 22° c. 71.6°f.
* Wind from: 210° Speed 09 kn.
Dewpoint: 19° c.
Visibility: 10 Statute Miles.
Clouds: Broken 1500 ft.
Clouds: Broken 3500 ft.

KBFD 211341Z AUTO 21009KT 10SM BKN015 BKN035 22/19 A3009 RMK AO2 T02220194


Wind From 210°
Speed 09 kn.

 
 
jpsmedia.com for Web Design worldairports.se 2018   terms of use